UAL2190 KLAX-KIAH
Flight info
| Callsign | UAL2190 |
|---|---|
| Flight time | N/A |
| Altitude | 35000 |
| Route | DOTSS2 CNERY BLH SPTFR Q4 FUSCO DIESL TTORO3 |
| Aircraft | A321/M-V/N |
Departure
| Time | 2026-05-04 01:08 |
|---|---|
| Airport | Los Angeles International Airport (KLAX) |
Arrival
| Time | N/A |
|---|---|
| Airport | George Bush Intercontinental Airport (KIAH) |
| Time | Latitude | Longitude | Altitude | Speed | Heading |
|---|---|---|---|---|---|
| 2026-05-04 00:37 | 33.94168 | -118.39779 | 126 ft | 0 kts | 82° |
| 2026-05-04 00:51 | 33.94167 | -118.39783 | 126 ft | 3 kts | 82° |
| 2026-05-04 00:51 | 33.94165 | -118.39806 | 125 ft | 3 kts | 82° |
| 2026-05-04 00:51 | 33.94161 | -118.39828 | 124 ft | 3 kts | 115° |
| 2026-05-04 00:51 | 33.94168 | -118.39843 | 123 ft | 0 kts | 159° |
| 2026-05-04 00:55 | 33.94156 | -118.39839 | 121 ft | 6 kts | 163° |
| 2026-05-04 00:55 | 33.94100 | -118.39827 | 124 ft | 10 kts | 171° |
| 2026-05-04 00:55 | 33.94027 | -118.39825 | 123 ft | 12 kts | 177° |
| 2026-05-04 00:56 | 33.93944 | -118.39801 | 123 ft | 11 kts | 148° |
| 2026-05-04 00:56 | 33.93911 | -118.39721 | 121 ft | 12 kts | 89° |
| 2026-05-04 00:56 | 33.93919 | -118.39611 | 126 ft | 14 kts | 84° |
| 2026-05-04 00:56 | 33.93931 | -118.39480 | 126 ft | 17 kts | 83° |
| 2026-05-04 00:57 | 33.93947 | -118.39325 | 126 ft | 20 kts | 83° |
| 2026-05-04 00:57 | 33.93965 | -118.39149 | 123 ft | 22 kts | 83° |
| 2026-05-04 00:57 | 33.93983 | -118.38971 | 124 ft | 10 kts | 83° |
| 2026-05-04 00:57 | 33.93992 | -118.38890 | 126 ft | 10 kts | 83° |
| 2026-05-04 00:58 | 33.94003 | -118.38781 | 125 ft | 17 kts | 83° |
| 2026-05-04 00:58 | 33.94020 | -118.38614 | 125 ft | 21 kts | 84° |
| 2026-05-04 00:58 | 33.94034 | -118.38471 | 125 ft | 14 kts | 83° |
| 2026-05-04 00:58 | 33.94038 | -118.38429 | 122 ft | 7 kts | 84° |
| 2026-05-04 00:59 | 33.94050 | -118.38323 | 125 ft | 18 kts | 82° |
| 2026-05-04 00:59 | 33.94063 | -118.38186 | 126 ft | 11 kts | 83° |
| 2026-05-04 00:59 | 33.94070 | -118.38120 | 123 ft | 5 kts | 83° |
| 2026-05-04 00:59 | 33.94073 | -118.38093 | 126 ft | 0 kts | 83° |
| 2026-05-04 01:00 | 33.94076 | -118.38063 | 126 ft | 6 kts | 83° |
| 2026-05-04 01:00 | 33.94072 | -118.38024 | 126 ft | 0 kts | 109° |
| 2026-05-04 01:02 | 33.94068 | -118.38019 | 117 ft | 4 kts | 122° |
| 2026-05-04 01:03 | 33.94000 | -118.38014 | 122 ft | 13 kts | 217° |
| 2026-05-04 01:03 | 33.93976 | -118.38112 | 126 ft | 13 kts | 263° |
| 2026-05-04 01:03 | 33.93966 | -118.38215 | 122 ft | 12 kts | 262° |
| 2026-05-04 01:03 | 33.93984 | -118.38320 | 122 ft | 14 kts | 321° |
| 2026-05-04 01:04 | 33.94073 | -118.38339 | 124 ft | 6 kts | 355° |
| 2026-05-04 01:04 | 33.94106 | -118.38344 | 123 ft | 1 kts | 353° |
| 2026-05-04 01:04 | 33.94110 | -118.38346 | 123 ft | 1 kts | 342° |
| 2026-05-04 01:04 | 33.94107 | -118.38357 | 124 ft | 2 kts | 270° |
| 2026-05-04 01:05 | 33.94088 | -118.38350 | 124 ft | 7 kts | 159° |
| 2026-05-04 01:05 | 33.94044 | -118.38337 | 122 ft | 0 kts | 169° |
| 2026-05-04 01:06 | 33.94043 | -118.38337 | 122 ft | 2 kts | 169° |
| 2026-05-04 01:06 | 33.93986 | -118.38320 | 125 ft | 5 kts | 169° |
| 2026-05-04 01:07 | 33.93955 | -118.38348 | 123 ft | 0 kts | 253° |
| 2026-05-04 01:07 | 33.93935 | -118.38516 | 124 ft | 56 kts | 263° |
| 2026-05-04 01:07 | 33.93853 | -118.39302 | 125 ft | 131 kts | 263° |
| 2026-05-04 01:08 | 33.93718 | -118.40635 | 477 ft | 172 kts | 262° |
| 2026-05-04 01:08 | 33.93565 | -118.42147 | 1249 ft | 192 kts | 263° |
| 2026-05-04 01:08 | 33.93407 | -118.43809 | 1990 ft | 207 kts | 263° |
| 2026-05-04 01:08 | 33.93267 | -118.45459 | 3278 ft | 187 kts | 264° |
| 2026-05-04 01:09 | 33.93099 | -118.46993 | 4305 ft | 185 kts | 254° |
| 2026-05-04 01:09 | 33.92338 | -118.48280 | 5021 ft | 197 kts | 224° |
| 2026-05-04 01:09 | 33.91197 | -118.49208 | 5809 ft | 202 kts | 214° |
| 2026-05-04 01:09 | 33.89997 | -118.50111 | 6623 ft | 204 kts | 216° |
| 2026-05-04 01:10 | 33.88805 | -118.51031 | 7470 ft | 202 kts | 215° |
| 2026-05-04 01:10 | 33.87621 | -118.51955 | 8244 ft | 204 kts | 215° |
| 2026-05-04 01:10 | 33.86474 | -118.52982 | 9003 ft | 204 kts | 218° |
| 2026-05-04 01:10 | 33.85330 | -118.53995 | 9738 ft | 206 kts | 217° |
| 2026-05-04 01:11 | 33.84159 | -118.55031 | 10328 ft | 214 kts | 217° |
| 2026-05-04 01:11 | 33.82780 | -118.55764 | 10891 ft | 226 kts | 190° |
| 2026-05-04 01:11 | 33.81146 | -118.55597 | 11336 ft | 245 kts | 175° |
| 2026-05-04 01:11 | 33.79399 | -118.55332 | 11832 ft | 261 kts | 176° |
| 2026-05-04 01:12 | 33.77543 | -118.55055 | 12371 ft | 276 kts | 176° |
| 2026-05-04 01:12 | 33.75591 | -118.54761 | 12946 ft | 288 kts | 176° |
| 2026-05-04 01:12 | 33.73563 | -118.54448 | 13588 ft | 295 kts | 176° |
| 2026-05-04 01:12 | 33.71594 | -118.54113 | 14593 ft | 286 kts | 173° |
| 2026-05-04 01:13 | 33.69768 | -118.53039 | 15270 ft | 307 kts | 146° |
| 2026-05-04 01:13 | 33.68561 | -118.50824 | 15745 ft | 336 kts | 113° |
| 2026-05-04 01:13 | 33.67841 | -118.48142 | 16617 ft | 334 kts | 114° |
| 2026-05-04 01:13 | 33.67131 | -118.45504 | 17654 ft | 328 kts | 114° |
| 2026-05-04 01:14 | 33.66468 | -118.42937 | 18662 ft | 314 kts | 114° |
| 2026-05-04 01:14 | 33.65883 | -118.40507 | 19587 ft | 290 kts | 112° |
| 2026-05-04 01:14 | 33.65451 | -118.38049 | 19688 ft | 322 kts | 105° |
| 2026-05-04 01:14 | 33.65119 | -118.35243 | 19435 ft | 363 kts | 103° |
| 2026-05-04 01:15 | 33.64751 | -118.32109 | 19521 ft | 386 kts | 104° |
| 2026-05-04 01:15 | 33.64356 | -118.28937 | 20428 ft | 388 kts | 102° |
| 2026-05-04 01:15 | 33.64189 | -118.25600 | 20759 ft | 410 kts | 97° |
| 2026-05-04 01:15 | 33.64051 | -118.22102 | 21094 ft | 429 kts | 97° |
| 2026-05-04 01:16 | 33.63884 | -118.18447 | 21524 ft | 446 kts | 97° |
| 2026-05-04 01:16 | 33.63734 | -118.14706 | 22361 ft | 449 kts | 97° |
| 2026-05-04 01:16 | 33.63603 | -118.10980 | 23414 ft | 446 kts | 96° |
| 2026-05-04 01:16 | 33.63485 | -118.07274 | 24345 ft | 441 kts | 96° |
| 2026-05-04 01:17 | 33.63379 | -118.03617 | 25256 ft | 434 kts | 96° |
| 2026-05-04 01:17 | 33.63280 | -118.00045 | 26217 ft | 422 kts | 97° |
| 2026-05-04 01:17 | 33.63220 | -117.96579 | 27186 ft | 406 kts | 94° |
| 2026-05-04 01:17 | 33.63259 | -117.93260 | 27898 ft | 400 kts | 92° |
| 2026-05-04 01:18 | 33.63313 | -117.89842 | 27414 ft | 429 kts | 93° |
| 2026-05-04 01:18 | 33.63350 | -117.86137 | 27118 ft | 456 kts | 93° |
| 2026-05-04 01:18 | 33.63361 | -117.84188 | 27026 ft | 469 kts | 93° |
| 2026-05-04 01:18 | 33.63364 | -117.83313 | 26995 ft | 474 kts | 93° |
| 2026-05-04 01:19 | 33.63355 | -117.79299 | 27256 ft | 484 kts | 97° |
| 2026-05-04 01:19 | 33.62937 | -117.75286 | 27548 ft | 488 kts | 107° |
| 2026-05-04 01:19 | 33.62254 | -117.71311 | 28365 ft | 481 kts | 107° |
| 2026-05-04 01:19 | 33.61621 | -117.67402 | 29433 ft | 471 kts | 107° |
| 2026-05-04 01:20 | 33.61240 | -117.63513 | 30193 ft | 469 kts | 106° |
| 2026-05-04 01:20 | 33.60416 | -117.59702 | 30046 ft | 473 kts | 115° |
| 2026-05-04 01:20 | 33.59486 | -117.56057 | 30973 ft | 454 kts | 115° |
| 2026-05-04 01:20 | 33.58588 | -117.52496 | 31863 ft | 436 kts | 116° |
| 2026-05-04 01:21 | 33.57792 | -117.48908 | 31760 ft | 454 kts | 113° |
| 2026-05-04 01:21 | 33.56932 | -117.45179 | 31429 ft | 474 kts | 114° |
| 2026-05-04 01:21 | 33.55961 | -117.41325 | 31261 ft | 489 kts | 113° |
| 2026-05-04 01:21 | 33.55053 | -117.37453 | 31907 ft | 475 kts | 111° |
| 2026-05-04 01:22 | 33.54232 | -117.33684 | 32682 ft | 456 kts | 116° |
| 2026-05-04 01:22 | 33.53125 | -117.30237 | 33337 ft | 429 kts | 131° |
| 2026-05-04 01:22 | 33.51831 | -117.27084 | 33819 ft | 433 kts | 121° |
| 2026-05-04 01:22 | 33.51118 | -117.23414 | 33551 ft | 463 kts | 103° |